createdAt,value
2023-04-28T00:00:16.144Z,3.13
2023-04-28T00:02:21.121Z,3.10
2023-04-28T00:04:26.370Z,3.17
2023-04-28T00:06:31.455Z,3.15
2023-04-28T00:08:36.655Z,3.20
2023-04-28T00:12:49.368Z,3.80
2023-04-28T00:14:54.432Z,4.18
2023-04-28T00:17:03.551Z,4.32
2023-04-28T00:19:08.608Z,4.97
2023-04-28T00:21:13.554Z,3.83
2023-04-28T00:23:18.837Z,4.13
2023-04-28T00:25:23.706Z,4.22
2023-04-28T00:27:28.546Z,4.15
2023-04-28T00:29:33.506Z,3.67
2023-04-28T00:31:38.532Z,4.07
2023-04-28T00:33:47.031Z,4.97
2023-04-28T00:35:51.855Z,3.97
2023-04-28T00:37:56.799Z,3.63
2023-04-28T00:40:01.824Z,3.55
2023-04-28T00:42:07.533Z,3.28
2023-04-28T00:44:12.666Z,3.50
2023-04-28T00:46:27.389Z,3.65
2023-04-28T00:48:32.280Z,4.35
2023-04-28T00:50:41.378Z,4.13
2023-04-28T00:52:46.518Z,3.00
2023-04-28T00:56:57.964Z,3.80
2023-04-28T00:59:03.606Z,4.00
2023-04-28T01:01:09.895Z,3.03
2023-04-28T01:03:14.991Z,3.63
2023-04-28T01:07:27.574Z,4.03
2023-04-28T01:09:33.308Z,4.50
2023-04-28T01:11:38.314Z,4.38
2023-04-28T01:13:48.446Z,4.82
2023-04-28T01:15:54.202Z,3.90
2023-04-28T01:17:59.185Z,4.28
2023-04-28T01:20:04.795Z,4.70
2023-04-28T01:22:10.836Z,4.05
2023-04-28T01:24:18.805Z,4.05
2023-04-28T01:26:23.951Z,3.70
2023-04-28T01:28:28.864Z,3.90
2023-04-28T01:30:33.817Z,3.60
2023-04-28T01:32:38.774Z,3.70
2023-04-28T01:34:43.679Z,4.22
2023-04-28T01:36:48.555Z,3.75
2023-04-28T01:38:53.484Z,3.50
2023-04-28T01:41:02.764Z,4.00
2023-04-28T01:43:08.025Z,3.67
2023-04-28T01:45:14.293Z,4.15
2023-04-28T01:47:19.163Z,4.40
2023-04-28T01:49:24.746Z,4.30
2023-04-28T01:51:29.956Z,3.22
2023-04-28T01:55:40.918Z,3.70
2023-04-28T01:57:48.980Z,3.63
2023-04-28T01:59:53.926Z,3.78
2023-04-28T02:01:59.686Z,4.15
2023-04-28T02:04:05.493Z,4.43
2023-04-28T02:06:13.226Z,4.03
2023-04-28T02:08:18.097Z,3.92
2023-04-28T02:10:23.254Z,4.22
2023-04-28T02:12:28.140Z,3.50
2023-04-28T02:14:35.575Z,4.82
2023-04-28T02:16:42.688Z,4.15
2023-04-28T02:18:50.228Z,4.10
2023-04-28T02:22:59.855Z,3.90
2023-04-28T02:25:07.440Z,4.93
2023-04-28T02:27:15.617Z,3.90
2023-04-28T02:29:20.647Z,4.13
2023-04-28T02:31:28.153Z,4.47
2023-04-28T02:33:33.082Z,3.72
2023-04-28T02:35:38.054Z,4.40
2023-04-28T02:37:43.076Z,3.70
2023-04-28T02:39:48.048Z,3.67
2023-04-28T02:41:53.095Z,4.05
2023-04-28T02:43:58.001Z,4.00
2023-04-28T02:46:03.072Z,3.80
2023-04-28T02:50:15.630Z,3.80
2023-04-28T02:52:20.906Z,4.85
2023-04-28T02:54:30.091Z,4.40
2023-04-28T02:56:37.311Z,3.92
2023-04-28T02:58:43.041Z,4.20
2023-04-28T03:00:48.151Z,3.58
2023-04-28T03:02:54.931Z,4.18
2023-04-28T03:05:02.679Z,4.43
2023-04-28T03:07:08.860Z,4.53
2023-04-28T03:09:15.795Z,4.47
2023-04-28T03:11:21.000Z,4.40
2023-04-28T03:13:26.123Z,4.15
2023-04-28T03:15:31.168Z,4.32
2023-04-28T03:19:41.968Z,4.65
2023-04-28T03:21:49.504Z,4.35
2023-04-28T03:23:54.463Z,5.03
2023-04-28T03:26:00.263Z,4.72
2023-04-28T03:28:05.365Z,4.18
2023-04-28T03:30:11.357Z,4.05
2023-04-28T03:32:16.522Z,4.50
2023-04-28T03:34:21.863Z,4.80
2023-04-28T03:38:38.310Z,4.93
2023-04-28T03:40:43.344Z,5.03
2023-04-28T03:42:51.065Z,4.30
2023-04-28T03:45:04.397Z,4.03
2023-04-28T03:49:18.261Z,4.55
2023-04-28T03:51:23.133Z,4.25
2023-04-28T03:53:27.985Z,4.25
2023-04-28T03:55:35.720Z,4.43
2023-04-28T03:57:40.771Z,5.05
2023-04-28T03:59:45.818Z,5.00
2023-04-28T04:01:50.742Z,5.25
2023-04-28T04:03:56.331Z,4.28
2023-04-28T04:06:02.155Z,4.95
2023-04-28T04:10:12.636Z,4.38
2023-04-28T04:12:22.996Z,4.75
2023-04-28T04:14:27.856Z,5.07
2023-04-28T04:16:33.976Z,5.03
2023-04-28T04:18:38.855Z,4.50
2023-04-28T04:20:58.999Z,4.40
2023-04-28T04:23:04.436Z,5.10
2023-04-28T04:25:10.323Z,4.47
2023-04-28T04:27:16.134Z,4.70
2023-04-28T04:29:23.734Z,4.28
2023-04-28T04:31:29.527Z,3.53
2023-04-28T04:33:34.996Z,3.50
2023-04-28T04:35:40.885Z,4.68
2023-04-28T04:37:45.922Z,4.50
2023-04-28T04:39:51.468Z,4.10
2023-04-28T04:41:56.775Z,4.57
2023-04-28T04:44:30.084Z,3.83
2023-04-28T04:46:35.867Z,5.00
2023-04-28T04:50:46.062Z,4.65
2023-04-28T04:52:50.964Z,4.63
2023-04-28T04:54:56.642Z,4.38
2023-04-28T04:57:02.786Z,4.82
2023-04-28T04:59:30.589Z,4.67
2023-04-28T05:01:55.860Z,4.72
2023-04-28T05:04:02.211Z,5.03
2023-04-28T05:06:07.572Z,4.82
2023-04-28T05:08:24.340Z,4.68
2023-04-28T05:10:29.287Z,4.95
2023-04-28T05:14:43.705Z,4.70
2023-04-28T05:16:49.027Z,4.47
2023-04-28T05:18:59.744Z,4.60
2023-04-28T05:21:04.885Z,4.50
2023-04-28T05:23:11.522Z,4.45
2023-04-28T05:25:16.707Z,5.15
2023-04-28T05:27:22.750Z,5.20
2023-04-28T05:29:28.467Z,5.10
2023-04-28T05:31:36.132Z,5.05
2023-04-28T05:33:41.819Z,4.15
2023-04-28T05:35:47.290Z,4.80
2023-04-28T05:37:53.452Z,4.93
2023-04-28T05:39:58.700Z,4.65
2023-04-28T05:44:12.419Z,5.43
2023-04-28T05:46:29.189Z,5.50
2023-04-28T05:48:38.839Z,4.38
2023-04-28T05:50:43.801Z,4.50
2023-04-28T05:52:51.143Z,4.57
2023-04-28T05:54:56.518Z,4.80
2023-04-28T05:57:01.702Z,4.28
2023-04-28T05:59:07.882Z,4.57
2023-04-28T06:01:12.845Z,5.45
2023-04-28T06:03:19.435Z,5.90
2023-04-28T06:05:28.244Z,5.88
2023-04-28T06:07:34.117Z,5.10
2023-04-28T06:09:39.302Z,5.15
2023-04-28T06:11:44.838Z,4.40
2023-04-28T06:13:49.748Z,4.95
2023-04-28T06:15:56.653Z,4.30
2023-04-28T06:20:07.853Z,4.70
2023-04-28T06:22:15.451Z,4.70
2023-04-28T06:24:20.849Z,4.93
2023-04-28T06:26:27.084Z,4.63
2023-04-28T06:28:32.177Z,4.40
2023-04-28T06:30:38.271Z,5.05
2023-04-28T06:32:43.220Z,5.07
2023-04-28T06:34:48.247Z,5.10
2023-04-28T06:36:53.200Z,5.93
2023-04-28T06:39:00.976Z,5.40
2023-04-28T06:41:06.274Z,5.45
2023-04-28T06:43:11.391Z,5.60
2023-04-28T06:45:21.935Z,5.00
2023-04-28T06:47:26.866Z,4.90
2023-04-28T06:49:31.821Z,4.38
2023-04-28T06:51:38.493Z,4.68
2023-04-28T06:53:43.700Z,5.63
2023-04-28T06:57:55.933Z,5.30
2023-04-28T07:00:00.867Z,5.03
2023-04-28T07:02:05.856Z,5.22
2023-04-28T07:04:10.866Z,5.55
2023-04-28T07:06:16.858Z,5.05
2023-04-28T07:08:21.923Z,4.57
2023-04-28T07:10:26.994Z,5.68
2023-04-28T07:12:34.696Z,5.32
2023-04-28T07:14:39.637Z,5.53
2023-04-28T07:16:47.339Z,5.05
2023-04-28T07:18:52.366Z,5.30
2023-04-28T07:20:57.233Z,6.35
2023-04-28T07:23:02.191Z,6.10
2023-04-28T07:25:07.867Z,5.60
2023-04-28T07:27:12.968Z,5.65
2023-04-28T07:29:20.969Z,5.45
2023-04-28T07:31:26.395Z,6.50
2023-04-28T07:33:31.708Z,6.38
2023-04-28T07:35:36.636Z,5.40
2023-04-28T07:37:44.054Z,5.60
2023-04-28T07:39:49.027Z,6.25
2023-04-28T07:41:54.246Z,6.00
2023-04-28T07:43:59.554Z,5.90
2023-04-28T07:46:07.253Z,6.13
2023-04-28T07:48:12.377Z,7.07
2023-04-28T07:50:18.220Z,7.28
2023-04-28T07:52:23.476Z,7.57
2023-04-28T07:54:31.321Z,7.20
2023-04-28T07:56:36.299Z,6.03
2023-04-28T07:58:41.268Z,7.25
2023-04-28T08:00:46.525Z,6.10
2023-04-28T08:04:59.406Z,6.97
2023-04-28T08:07:04.561Z,6.63
2023-04-28T08:09:09.481Z,6.53
2023-04-28T08:11:14.491Z,6.72
2023-04-28T08:13:19.504Z,7.43
2023-04-28T08:15:24.810Z,8.13
2023-04-28T08:17:29.866Z,7.30
2023-04-28T08:19:37.445Z,8.30
2023-04-28T08:21:42.427Z,7.30
2023-04-28T08:23:47.349Z,6.28
2023-04-28T08:25:53.372Z,6.55
2023-04-28T08:27:58.906Z,6.85
2023-04-28T08:30:04.742Z,7.65
2023-04-28T08:32:10.014Z,7.45
2023-04-28T08:36:25.352Z,6.57
2023-04-28T08:38:30.357Z,7.45
2023-04-28T08:40:35.233Z,7.60
2023-04-28T08:42:40.628Z,8.85
2023-04-28T08:44:45.574Z,8.43
2023-04-28T08:46:53.036Z,8.10
2023-04-28T08:49:06.012Z,7.95
2023-04-28T08:51:11.336Z,7.13
2023-04-28T08:53:25.287Z,7.18
2023-04-28T08:55:30.823Z,7.95
2023-04-28T08:57:42.276Z,6.65
2023-04-28T08:59:47.466Z,7.90
2023-04-28T09:03:58.029Z,6.38
2023-04-28T09:06:05.004Z,7.32
2023-04-28T09:08:12.021Z,6.97
2023-04-28T09:10:24.861Z,6.78
2023-04-28T09:12:39.585Z,7.15
2023-04-28T09:14:44.783Z,7.28
2023-04-28T09:16:50.108Z,6.90
2023-04-28T09:19:01.130Z,6.78
2023-04-28T09:21:07.579Z,6.40
2023-04-28T09:23:17.571Z,9.43
2023-04-28T09:25:28.177Z,11.02
2023-04-28T09:27:33.094Z,10.05
2023-04-28T09:29:38.016Z,11.20
2023-04-28T09:31:43.779Z,11.57
2023-04-28T09:34:00.362Z,12.63
2023-04-28T09:36:05.394Z,13.20
2023-04-28T09:38:10.286Z,10.23
2023-04-28T09:40:16.966Z,11.48
2023-04-28T09:42:37.908Z,9.45
2023-04-28T09:44:43.312Z,8.25
2023-04-28T09:46:49.317Z,6.65
2023-04-28T09:49:04.085Z,6.68
2023-04-28T09:51:12.392Z,7.00
2023-04-28T09:53:19.139Z,7.20
2023-04-28T09:55:24.182Z,6.65
2023-04-28T09:57:31.583Z,5.72
2023-04-28T09:59:39.930Z,6.25
2023-04-28T10:01:47.221Z,6.63
2023-04-28T10:03:53.584Z,7.45
2023-04-28T10:06:02.453Z,7.18
2023-04-28T10:08:08.249Z,6.60
2023-04-28T10:10:15.689Z,7.43
2023-04-28T10:12:21.385Z,7.10
2023-04-28T10:14:27.471Z,7.35
2023-04-28T10:16:35.534Z,7.32
2023-04-28T10:18:40.718Z,8.90
2023-04-28T10:20:48.920Z,7.78
2023-04-28T10:23:10.266Z,7.30
2023-04-28T10:25:30.081Z,6.28
2023-04-28T10:27:36.163Z,6.15
2023-04-28T10:29:41.125Z,6.72
2023-04-28T10:32:19.939Z,6.53
2023-04-28T10:34:30.219Z,6.90
2023-04-28T10:36:52.998Z,6.30
2023-04-28T10:39:14.428Z,6.85
2023-04-28T10:41:37.269Z,7.95
2023-04-28T10:43:42.603Z,11.18
2023-04-28T10:46:04.177Z,13.27
2023-04-28T10:48:11.787Z,10.15
2023-04-28T10:50:16.894Z,8.48
2023-04-28T10:52:53.398Z,6.90
2023-04-28T10:55:28.949Z,11.87
2023-04-28T10:57:33.911Z,10.05
2023-04-28T10:59:39.008Z,8.25
2023-04-28T11:01:46.010Z,6.28
2023-04-28T11:04:00.957Z,6.57
2023-04-28T11:06:25.915Z,5.90
2023-04-28T11:08:36.575Z,5.35
2023-04-28T11:11:11.144Z,5.70
2023-04-28T11:13:34.407Z,5.20
2023-04-28T11:15:39.486Z,5.13
2023-04-28T11:17:46.204Z,4.90
2023-04-28T11:19:53.669Z,5.10
2023-04-28T11:22:00.367Z,5.20
2023-04-28T11:24:12.941Z,5.18
2023-04-28T11:26:18.685Z,4.88
2023-04-28T11:28:24.118Z,4.63
2023-04-28T11:30:30.338Z,5.05
2023-04-28T11:32:36.868Z,4.80
2023-04-28T11:34:44.434Z,4.82
2023-04-28T11:36:54.135Z,4.90
2023-04-28T11:38:59.914Z,4.72
2023-04-28T11:41:04.808Z,4.13
2023-04-28T11:43:09.911Z,4.75
2023-04-28T11:45:15.978Z,4.50
2023-04-28T11:47:33.009Z,4.03
2023-04-28T11:49:46.907Z,4.25
2023-04-28T11:51:55.492Z,3.70
2023-04-28T11:54:00.340Z,4.40
2023-04-28T11:56:10.068Z,4.78
2023-04-28T11:58:22.601Z,4.65
2023-04-28T12:00:29.160Z,4.80
2023-04-28T12:02:34.192Z,4.07
2023-04-28T12:06:44.890Z,4.03
2023-04-28T12:08:53.038Z,4.40
2023-04-28T12:11:11.680Z,4.40
2023-04-28T12:13:19.657Z,4.80
2023-04-28T12:15:25.649Z,4.15
2023-04-28T12:17:31.785Z,3.70
2023-04-28T12:19:47.513Z,3.88
2023-04-28T12:22:06.467Z,3.60
2023-04-28T12:24:26.214Z,3.75
2023-04-28T12:26:31.262Z,3.25
2023-04-28T12:28:40.529Z,3.10
2023-04-28T12:30:45.680Z,3.10
2023-04-28T12:34:55.629Z,3.05
2023-04-28T12:37:06.259Z,3.50
2023-04-28T12:39:19.275Z,3.50
2023-04-28T12:41:27.398Z,3.25
2023-04-28T12:43:32.399Z,3.10
2023-04-28T12:45:38.768Z,3.28
2023-04-28T12:47:44.304Z,3.50
2023-04-28T12:51:55.893Z,3.50
2023-04-28T12:54:01.339Z,4.15
2023-04-28T12:56:06.373Z,3.97
2023-04-28T12:58:13.892Z,3.10
2023-04-28T13:00:23.397Z,2.72
2023-04-28T13:02:28.609Z,3.65
2023-04-28T13:04:33.874Z,3.60
2023-04-28T13:06:39.149Z,3.30
2023-04-28T13:10:51.228Z,3.58
2023-04-28T13:12:56.455Z,3.40
2023-04-28T13:17:10.305Z,4.10
2023-04-28T13:19:18.555Z,3.97
2023-04-28T13:21:23.536Z,4.72
2023-04-28T13:23:28.554Z,4.57
2023-04-28T13:25:33.479Z,3.80
2023-04-28T13:27:39.201Z,4.63
2023-04-28T13:29:45.604Z,4.18
2023-04-28T13:31:53.142Z,4.28
2023-04-28T13:33:58.102Z,3.70
2023-04-28T13:36:03.485Z,3.50
2023-04-28T13:38:08.524Z,3.65
2023-04-28T13:40:14.628Z,3.55
2023-04-28T13:42:19.630Z,3.72
2023-04-28T13:44:24.509Z,4.00
2023-04-28T13:46:30.728Z,3.53
2023-04-28T13:48:39.490Z,3.55
2023-04-28T13:50:47.332Z,3.40
2023-04-28T13:52:52.875Z,3.58
2023-04-28T13:54:57.854Z,3.40
2023-04-28T13:59:08.449Z,4.25
2023-04-28T14:01:13.427Z,3.97
2023-04-28T14:03:18.675Z,3.92
2023-04-28T14:05:26.827Z,3.58
2023-04-28T14:07:31.821Z,3.58
2023-04-28T14:09:36.907Z,3.05
2023-04-28T14:13:49.650Z,3.55
2023-04-28T14:18:05.324Z,3.13
2023-04-28T14:20:11.809Z,2.67
2023-04-28T14:22:19.394Z,2.60
2023-04-28T14:24:24.445Z,3.08
2023-04-28T14:26:30.376Z,3.70
2023-04-28T14:28:35.383Z,3.47
2023-04-28T14:30:42.676Z,3.58
2023-04-28T14:32:47.807Z,3.33
2023-04-28T14:37:00.448Z,2.90
2023-04-28T14:39:08.025Z,2.70
2023-04-28T14:41:13.149Z,2.38
2023-04-28T14:45:22.851Z,2.60
2023-04-28T14:47:27.881Z,2.58
2023-04-28T14:49:33.178Z,2.20
2023-04-28T14:53:43.089Z,2.20
2023-04-28T14:55:50.550Z,3.05
2023-04-28T14:57:55.636Z,2.60
2023-04-28T15:02:06.362Z,2.50
2023-04-28T15:04:11.507Z,2.50
2023-04-28T15:06:16.701Z,2.88
2023-04-28T15:08:21.938Z,2.28
2023-04-28T15:10:26.873Z,2.60
2023-04-28T15:12:34.678Z,2.70
2023-04-28T15:14:39.614Z,2.50
2023-04-28T15:16:44.947Z,2.83
2023-04-28T15:18:49.881Z,2.53
2023-04-28T15:20:54.799Z,2.40
2023-04-28T15:22:59.997Z,2.80
2023-04-28T15:25:04.986Z,2.60
2023-04-28T15:27:10.273Z,2.35
2023-04-28T15:29:20.803Z,2.88
2023-04-28T15:31:26.069Z,3.10
2023-04-28T15:33:31.811Z,3.65
2023-04-28T15:35:36.804Z,3.30
2023-04-28T15:39:48.359Z,3.63
2023-04-28T15:41:53.603Z,3.13
2023-04-28T15:43:58.605Z,3.47
2023-04-28T15:46:09.452Z,4.07
2023-04-28T15:48:15.425Z,4.25
2023-04-28T15:50:21.106Z,4.38
2023-04-28T15:52:27.070Z,4.00
2023-04-28T15:54:32.304Z,3.55
2023-04-28T15:56:37.375Z,3.65
2023-04-28T15:58:42.672Z,4.28
2023-04-28T16:00:48.658Z,4.50
2023-04-28T16:02:56.497Z,4.47
2023-04-28T16:05:02.800Z,4.20
2023-04-28T16:07:07.667Z,4.03
2023-04-28T16:09:12.613Z,3.88
2023-04-28T16:11:19.621Z,4.03
2023-04-28T16:13:24.856Z,2.90
2023-04-28T16:17:36.110Z,3.38
2023-04-28T16:19:43.681Z,3.30
2023-04-28T16:21:48.562Z,5.80
2023-04-28T16:23:53.990Z,3.80
2023-04-28T16:25:58.980Z,3.47
2023-04-28T16:28:03.898Z,3.83
2023-04-28T16:30:10.299Z,4.30
2023-04-28T16:32:15.377Z,5.38
2023-04-28T16:36:28.618Z,3.13
2023-04-28T16:38:33.543Z,2.55
2023-04-28T16:40:41.231Z,2.30
2023-04-28T16:42:46.800Z,2.30
2023-04-28T16:44:53.083Z,2.25
2023-04-28T16:46:58.324Z,2.05
2023-04-28T16:49:03.328Z,2.10
2023-04-28T16:53:16.475Z,2.40
2023-04-28T16:55:21.439Z,2.38
2023-04-28T16:57:26.657Z,2.30
2023-04-28T17:01:41.664Z,2.80
2023-04-28T17:03:47.004Z,2.88
2023-04-28T17:05:51.943Z,2.67
2023-04-28T17:07:58.054Z,3.55
2023-04-28T17:10:06.343Z,4.60
2023-04-28T17:12:11.373Z,4.05
2023-04-28T17:16:21.422Z,4.10
2023-04-28T17:20:31.251Z,2.90
2023-04-28T17:22:36.086Z,2.88
2023-04-28T17:24:40.980Z,3.30
2023-04-28T17:26:48.441Z,3.20
2023-04-28T17:28:53.635Z,2.72
2023-04-28T17:33:03.278Z,3.05
2023-04-28T17:35:08.882Z,2.47
2023-04-28T17:37:14.029Z,1.90
2023-04-28T17:39:19.430Z,2.00
2023-04-28T17:41:25.046Z,2.00
2023-04-28T17:43:33.995Z,1.70
2023-04-28T17:45:38.939Z,1.85
2023-04-28T17:47:43.870Z,1.80
2023-04-28T17:49:48.801Z,1.65
2023-04-28T17:51:53.719Z,1.40
2023-04-28T17:53:59.623Z,1.50
2023-04-28T17:56:04.683Z,1.85
2023-04-28T17:58:10.072Z,1.40
2023-04-28T18:00:18.493Z,1.27
2023-04-28T18:02:23.589Z,1.45
2023-04-28T18:06:35.071Z,1.50
2023-04-28T18:08:42.567Z,1.30
2023-04-28T18:10:48.169Z,1.75
2023-04-28T18:14:58.755Z,2.10
2023-04-28T18:17:11.132Z,2.30
2023-04-28T18:19:16.498Z,2.20
2023-04-28T18:21:21.494Z,2.20
2023-04-28T18:23:26.726Z,3.03
2023-04-28T18:27:37.431Z,2.30
2023-04-28T18:29:42.502Z,2.67
2023-04-28T18:31:47.475Z,4.70
2023-04-28T18:33:55.402Z,3.88
2023-04-28T18:36:05.384Z,6.45
2023-04-28T18:38:10.532Z,3.92
2023-04-28T18:40:15.468Z,2.80
2023-04-28T18:42:20.821Z,2.28
2023-04-28T18:44:25.690Z,2.40
2023-04-28T18:50:48.122Z,3.45
2023-04-28T18:52:53.360Z,3.40
2023-04-28T18:54:58.252Z,3.50
2023-04-28T18:57:03.869Z,4.30
2023-04-28T18:59:09.153Z,6.13
2023-04-28T19:01:17.529Z,6.03
2023-04-28T19:03:23.214Z,4.93
2023-04-28T19:05:29.651Z,4.13
2023-04-28T19:07:38.195Z,3.75
2023-04-28T19:09:43.090Z,2.28
2023-04-28T19:11:48.166Z,2.45
2023-04-28T19:13:54.343Z,1.90
2023-04-28T19:15:59.393Z,2.03
2023-04-28T19:20:10.919Z,1.70
2023-04-28T19:22:38.561Z,1.70
2023-04-28T19:24:43.870Z,1.50
2023-04-28T19:28:54.371Z,1.90
2023-04-28T19:31:00.176Z,2.08
2023-04-28T19:33:05.089Z,2.33
2023-04-28T19:35:11.492Z,2.13
2023-04-28T19:37:16.377Z,2.08
2023-04-28T19:39:23.895Z,2.35
2023-04-28T19:41:28.808Z,2.80
2023-04-28T19:43:33.763Z,3.13
2023-04-28T19:45:38.644Z,3.10
2023-04-28T19:47:43.626Z,3.22
2023-04-28T19:51:53.361Z,2.78
2023-04-28T19:53:58.262Z,3.05
2023-04-28T19:56:06.006Z,2.80
2023-04-28T19:58:10.904Z,2.85
2023-04-28T20:00:16.749Z,3.15
2023-04-28T20:02:21.994Z,2.53
2023-04-28T20:04:29.273Z,2.50
2023-04-28T20:06:34.755Z,2.90
2023-04-28T20:10:47.374Z,3.25
2023-04-28T20:12:57.202Z,2.70
2023-04-28T20:15:02.220Z,2.63
2023-04-28T20:19:13.262Z,1.95
2023-04-28T20:21:18.413Z,2.35
2023-04-28T20:23:23.674Z,2.38
2023-04-28T20:25:29.139Z,2.10
2023-04-28T20:29:44.076Z,1.88
2023-04-28T20:31:49.074Z,1.90
2023-04-28T20:35:59.396Z,2.20
2023-04-28T20:38:04.292Z,2.20
2023-04-28T20:40:11.815Z,2.38
2023-04-28T20:42:17.570Z,2.42
2023-04-28T20:44:22.442Z,2.53
2023-04-28T20:46:30.150Z,2.47
2023-04-28T20:48:35.056Z,2.50
2023-04-28T20:50:44.457Z,3.00
2023-04-28T20:52:50.378Z,2.60
2023-04-28T20:54:55.533Z,2.47
2023-04-28T20:57:00.558Z,2.40
2023-04-28T20:59:05.430Z,2.65
2023-04-28T21:01:10.910Z,2.67
2023-04-28T21:03:21.732Z,3.13
2023-04-28T21:05:26.664Z,2.42
2023-04-28T21:07:31.673Z,2.47
2023-04-28T21:09:37.697Z,2.00
2023-04-28T21:11:42.572Z,2.28
2023-04-28T21:13:48.350Z,2.10
2023-04-28T21:15:54.255Z,2.38
2023-04-28T21:17:59.439Z,2.65
2023-04-28T21:20:07.985Z,2.35
2023-04-28T21:22:14.399Z,2.00
2023-04-28T21:24:19.428Z,1.80
2023-04-28T21:26:24.696Z,1.90
2023-04-28T21:28:29.573Z,1.73
2023-04-28T21:30:34.486Z,1.75
2023-04-28T21:32:39.440Z,1.85
2023-04-28T21:34:44.671Z,1.75
2023-04-28T21:38:56.976Z,1.65
2023-04-28T21:41:01.886Z,1.65
2023-04-28T21:43:06.919Z,1.65
2023-04-28T21:45:13.175Z,1.60
2023-04-28T21:47:18.651Z,1.67
2023-04-28T21:49:23.604Z,1.70
2023-04-28T21:51:28.460Z,1.85
2023-04-28T21:53:36.011Z,1.63
2023-04-28T21:55:40.931Z,1.60
2023-04-28T21:57:45.823Z,1.60
2023-04-28T21:59:50.785Z,1.75
2023-04-28T22:04:01.424Z,2.00
2023-04-28T22:06:06.802Z,2.03
2023-04-28T22:08:11.789Z,1.83
2023-04-28T22:10:22.938Z,1.80
2023-04-28T22:12:27.842Z,1.83
2023-04-28T22:14:40.390Z,1.55
2023-04-28T22:16:46.183Z,1.75
2023-04-28T22:18:51.114Z,1.60
2023-04-28T22:20:56.119Z,1.90
2023-04-28T22:23:01.081Z,1.83
2023-04-28T22:25:06.019Z,1.58
2023-04-28T22:27:13.824Z,2.00
2023-04-28T22:29:18.924Z,2.00
2023-04-28T22:33:28.642Z,1.90
2023-04-28T22:35:33.585Z,1.98
2023-04-28T22:37:38.670Z,1.58
2023-04-28T22:41:48.304Z,1.80
2023-04-28T22:43:56.412Z,2.45
2023-04-28T22:46:02.630Z,2.30
2023-04-28T22:48:08.123Z,2.08
2023-04-28T22:50:14.313Z,2.17
2023-04-28T22:52:20.672Z,2.30
2023-04-28T22:54:25.613Z,2.05
2023-04-28T22:56:30.645Z,2.00
2023-04-28T22:58:35.860Z,1.92
2023-04-28T23:00:43.457Z,1.88
2023-04-28T23:02:48.483Z,2.10
2023-04-28T23:06:58.619Z,1.85
2023-04-28T23:09:03.834Z,2.50
2023-04-28T23:13:13.370Z,2.10
2023-04-28T23:15:18.270Z,2.75
2023-04-28T23:17:27.081Z,2.10
2023-04-28T23:19:32.059Z,1.77
2023-04-28T23:21:37.100Z,2.00
2023-04-28T23:23:41.990Z,1.95
2023-04-28T23:25:46.964Z,2.03
2023-04-28T23:27:51.865Z,1.65
2023-04-28T23:29:56.893Z,1.90
2023-04-28T23:32:02.087Z,1.70
2023-04-28T23:36:14.892Z,1.83
2023-04-28T23:38:19.831Z,1.70
2023-04-28T23:40:24.697Z,1.80
2023-04-28T23:42:30.227Z,2.47
2023-04-28T23:44:35.486Z,2.00
2023-04-28T23:48:47.783Z,2.10
2023-04-28T23:50:55.300Z,2.20
2023-04-28T23:53:00.175Z,1.90
2023-04-28T23:55:05.658Z,1.83
2023-04-28T23:57:10.534Z,2.10
2023-04-28T23:59:15.463Z,2.50
